Time;durP1;ratioP1;P1;durP2;ratioP2;P2;SDS_P1;SDS_P2;PMS_P1;PMS_P2;Temp;Humidity;BMP_temperature;BMP_pressure;BME280_temperature;BME280_humidity;BME280_pressure;Samples;Min_cycle;Max_cycle;Signal;HPM_P1;HPM_P2
2022/11/20 00:00:00;;;;;;;;;;;-0.50;99.90;;;;;;5015914;28;19948;-70
2022/11/20 00:02:25;;;;;;;;;;;-0.50;99.90;;;;;;5014277;28;19957;-71
2022/11/20 00:04:51;;;;;;;;;;;-0.40;99.90;;;;;;5013628;28;19952;-70
2022/11/20 00:07:17;;;;;;;;;;;-0.40;99.90;;;;;;5029455;28;20349;-70
2022/11/20 00:09:42;;;;;;;;;;;-0.50;99.90;;;;;;5027740;28;19921;-70
2022/11/20 00:12:07;;;;;;;;;;;-0.60;99.90;;;;;;5015034;28;19929;-70
2022/11/20 00:14:33;;;;;;;;;;;-0.60;99.90;;;;;;5009461;28;20355;-71
2022/11/20 00:16:59;;;;;;;;;;;-0.70;99.90;;;;;;5025125;28;19924;-71
2022/11/20 00:19:24;;;;;;;;;;;-0.60;99.90;;;;;;5010964;28;20021;-70
2022/11/20 00:21:51;;;;;;;;;;;-0.50;99.90;;;;;;5022908;28;19932;-70
2022/11/20 00:24:16;;;;;;;;;;;-0.50;99.90;;;;;;5023483;28;19931;-70
2022/11/20 00:26:42;;;;;;;;;;;-0.40;99.90;;;;;;5026380;28;20012;-70
2022/11/20 00:29:09;;;;;;;;;;;-0.40;99.90;;;;;;5015004;28;19925;-71
2022/11/20 00:31:35;;;;;;;;;;;-0.40;99.90;;;;;;5025967;28;19971;-70
2022/11/20 00:34:00;;;;;;;;;;;-0.30;99.90;;;;;;5020587;28;19925;-70
2022/11/20 00:36:26;;;;;;;;;;;-0.20;99.90;;;;;;5021300;28;19940;-71
2022/11/20 00:38:53;;;;;;;;;;;-0.30;99.90;;;;;;5016833;28;20017;-70
2022/11/20 00:41:18;;;;;;;;;;;-0.40;99.90;;;;;;5019589;28;19928;-70
2022/11/20 00:43:44;;;;;;;;;;;-0.40;99.90;;;;;;5016667;28;19922;-70
2022/11/20 00:46:13;;;;;;;;;;;-0.30;99.90;;;;;;5021381;28;19953;-70
2022/11/20 00:48:39;;;;;;;;;;;-0.20;99.90;;;;;;5016655;28;19929;-70
2022/11/20 00:51:05;;;;;;;;;;;-0.20;99.90;;;;;;5026096;28;19982;-70
2022/11/20 00:53:31;;;;;;;;;;;-0.10;99.90;;;;;;5017596;28;19926;-70
2022/11/20 00:55:58;;;;;;;;;;;-0.10;99.90;;;;;;5023630;28;19975;-70
2022/11/20 00:58:24;;;;;;;;;;;-0.10;99.90;;;;;;5022324;28;19929;-70
2022/11/20 01:00:49;;;;;;;;;;;-0.10;99.90;;;;;;5023110;28;20012;-70
2022/11/20 01:03:16;;;;;;;;;;;-0.10;99.90;;;;;;5017488;28;20051;-70
2022/11/20 01:05:41;;;;;;;;;;;-0.10;99.90;;;;;;5021958;28;20012;-70
2022/11/20 01:08:07;;;;;;;;;;;0.00;99.90;;;;;;5017613;28;20009;-70
2022/11/20 01:10:33;;;;;;;;;;;0.00;99.90;;;;;;5031786;28;19921;-69
2022/11/20 01:15:42;;;;;;;;;;;0.10;99.90;;;;;;5024187;28;20446;-70
2022/11/20 01:18:08;;;;;;;;;;;0.10;99.90;;;;;;5015829;28;20020;-70
2022/11/20 01:20:36;;;;;;;;;;;0.10;99.90;;;;;;5017184;28;20290;-70
2022/11/20 01:23:02;;;;;;;;;;;0.10;99.90;;;;;;5015889;28;20378;-70
2022/11/20 01:25:28;;;;;;;;;;;0.20;99.90;;;;;;4995857;28;19975;-70
2022/11/20 01:27:54;;;;;;;;;;;0.20;99.90;;;;;;5015474;28;20342;-70
2022/11/20 01:30:19;;;;;;;;;;;0.20;99.90;;;;;;5023089;28;20366;-70
2022/11/20 01:32:45;;;;;;;;;;;0.10;99.90;;;;;;5017329;28;19947;-70
2022/11/20 01:35:10;;;;;;;;;;;0.00;99.90;;;;;;5012084;28;20054;-70
2022/11/20 01:37:36;;;;;;;;;;;0.00;99.90;;;;;;5013292;28;19929;-70
2022/11/20 01:40:01;;;;;;;;;;;0.00;99.90;;;;;;5034604;28;19921;-70
2022/11/20 01:45:29;;;;;;;;;;;0.00;99.90;;;;;;5024833;28;19933;-70
2022/11/20 01:47:55;;;;;;;;;;;0.10;99.90;;;;;;5016798;28;20024;-70
2022/11/20 01:50:20;;;;;;;;;;;0.10;99.90;;;;;;5022091;28;20015;-70
2022/11/20 01:52:49;;;;;;;;;;;0.20;99.90;;;;;;5111116;22;19927;-68
2022/11/20 01:55:17;;;;;;;;;;;0.20;99.90;;;;;;5117023;28;19973;-68
2022/11/20 01:57:43;;;;;;;;;;;0.20;99.90;;;;;;5097242;28;19920;-68
2022/11/20 02:00:10;;;;;;;;;;;0.20;99.90;;;;;;5104483;28;19919;-68
2022/11/20 02:02:37;;;;;;;;;;;0.10;99.90;;;;;;5101088;28;19924;-68
2022/11/20 02:05:09;;;;;;;;;;;0.10;99.90;;;;;;5099511;28;19973;-68
2022/11/20 02:07:34;;;;;;;;;;;0.20;99.90;;;;;;5081140;28;19932;-68
2022/11/20 02:10:00;;;;;;;;;;;0.20;99.90;;;;;;5106388;28;19920;-68
2022/11/20 02:15:09;;;;;;;;;;;0.20;99.90;;;;;;5108141;28;19932;-68
2022/11/20 02:17:35;;;;;;;;;;;0.30;99.90;;;;;;5099109;28;20333;-68
2022/11/20 02:20:00;;;;;;;;;;;0.30;99.90;;;;;;5106400;28;20350;-68
2022/11/20 02:22:29;;;;;;;;;;;0.30;99.90;;;;;;5102943;28;19935;-68
2022/11/20 02:24:55;;;;;;;;;;;0.30;99.90;;;;;;5096009;28;19923;-68
2022/11/20 02:27:20;;;;;;;;;;;0.40;99.90;;;;;;5100880;28;19927;-68
2022/11/20 02:29:49;;;;;;;;;;;0.40;99.90;;;;;;5098575;28;19928;-66
2022/11/20 02:32:23;;;;;;;;;;;0.40;99.90;;;;;;5101669;28;19916;-66
2022/11/20 02:34:48;;;;;;;;;;;0.40;99.90;;;;;;5092872;28;19946;-65
2022/11/20 02:37:15;;;;;;;;;;;0.40;99.90;;;;;;5100827;28;19919;-66
2022/11/20 02:39:41;;;;;;;;;;;0.40;99.90;;;;;;5102410;28;19924;-66
2022/11/20 02:42:06;;;;;;;;;;;0.50;99.90;;;;;;5100459;28;20306;-66
2022/11/20 02:44:32;;;;;;;;;;;0.50;99.90;;;;;;5095125;28;19974;-69
2022/11/20 02:46:58;;;;;;;;;;;0.50;99.90;;;;;;5109565;28;19946;-66
2022/11/20 02:49:24;;;;;;;;;;;0.50;99.90;;;;;;5104477;28;19959;-66
2022/11/20 02:51:49;;;;;;;;;;;0.60;99.90;;;;;;5115020;27;20005;-66
2022/11/20 02:54:15;;;;;;;;;;;0.50;99.90;;;;;;5080779;28;20037;-66
2022/11/20 02:56:40;;;;;;;;;;;0.50;99.90;;;;;;5098981;28;19919;-66
2022/11/20 02:59:06;;;;;;;;;;;0.60;99.90;;;;;;5100029;28;20401;-66
2022/11/20 03:01:31;;;;;;;;;;;0.60;99.90;;;;;;5106658;27;20291;-66
2022/11/20 03:03:57;;;;;;;;;;;0.60;99.90;;;;;;5104946;28;19930;-66
2022/11/20 03:06:22;;;;;;;;;;;0.60;99.90;;;;;;5098149;28;19928;-66
2022/11/20 03:08:48;;;;;;;;;;;0.60;99.90;;;;;;5086692;28;20412;-65
2022/11/20 03:11:13;;;;;;;;;;;0.60;99.90;;;;;;5102480;28;19928;-66
2022/11/20 03:13:39;;;;;;;;;;;0.50;99.90;;;;;;5108230;28;19931;-65
2022/11/20 03:16:15;;;;;;;;;;;0.50;99.90;;;;;;5106817;28;19920;-68
2022/11/20 03:18:41;;;;;;;;;;;0.40;99.90;;;;;;5111274;28;19924;-66
2022/11/20 03:21:07;;;;;;;;;;;0.40;99.90;;;;;;5109106;28;19928;-66
2022/11/20 03:23:33;;;;;;;;;;;0.50;99.90;;;;;;5111430;28;19926;-66
2022/11/20 03:26:09;;;;;;;;;;;0.50;99.90;;;;;;5082380;28;19942;-65
2022/11/20 03:28:34;;;;;;;;;;;0.50;99.90;;;;;;5102790;28;20320;-65
2022/11/20 03:31:07;;;;;;;;;;;0.50;99.90;;;;;;5102768;28;19919;-68
2022/11/20 03:33:32;;;;;;;;;;;0.50;99.90;;;;;;5098154;28;19928;-65
2022/11/20 03:36:02;;;;;;;;;;;0.60;99.90;;;;;;5092955;28;19963;-65
2022/11/20 03:38:28;;;;;;;;;;;0.60;99.90;;;;;;5091826;28;19927;-66
2022/11/20 03:40:57;;;;;;;;;;;0.60;99.90;;;;;;5108207;28;19969;-65
2022/11/20 03:43:23;;;;;;;;;;;0.60;99.90;;;;;;5103482;28;20018;-65
2022/11/20 03:45:48;;;;;;;;;;;0.50;99.90;;;;;;5104355;28;20019;-65
2022/11/20 03:48:14;;;;;;;;;;;0.40;99.90;;;;;;5098202;28;19927;-65
2022/11/20 03:50:39;;;;;;;;;;;0.40;99.90;;;;;;5101637;28;19920;-65
2022/11/20 03:53:05;;;;;;;;;;;0.50;99.90;;;;;;5093185;28;19931;-66
2022/11/20 03:55:30;;;;;;;;;;;0.50;99.90;;;;;;5102525;28;20684;-66
2022/11/20 03:57:55;;;;;;;;;;;0.50;99.90;;;;;;5100568;28;19927;-66
2022/11/20 04:00:21;;;;;;;;;;;0.60;99.90;;;;;;5100117;28;19931;-66
2022/11/20 04:02:47;;;;;;;;;;;0.60;99.90;;;;;;5099638;28;19980;-66
2022/11/20 04:05:12;;;;;;;;;;;0.60;99.90;;;;;;5098774;28;19967;-66
2022/11/20 04:07:37;;;;;;;;;;;0.60;99.90;;;;;;5101334;28;19920;-67
2022/11/20 04:10:03;;;;;;;;;;;0.70;99.90;;;;;;5083221;28;20334;-66
2022/11/20 04:12:31;;;;;;;;;;;0.70;99.90;;;;;;5097061;28;20575;-66
2022/11/20 04:14:56;;;;;;;;;;;0.70;99.90;;;;;;5104164;28;19927;-67
2022/11/20 04:17:22;;;;;;;;;;;0.70;99.90;;;;;;5096007;28;19927;-67
2022/11/20 04:19:47;;;;;;;;;;;0.70;99.90;;;;;;5108169;28;19924;-66
2022/11/20 04:22:13;;;;;;;;;;;0.70;99.90;;;;;;5105876;28;19959;-66
2022/11/20 04:24:38;;;;;;;;;;;0.80;99.90;;;;;;5098883;28;19926;-66
2022/11/20 04:27:04;;;;;;;;;;;0.80;99.90;;;;;;5101839;28;19931;-66
2022/11/20 04:29:29;;;;;;;;;;;0.80;99.90;;;;;;5100141;28;20002;-66
2022/11/20 04:31:55;;;;;;;;;;;0.80;99.90;;;;;;5083189;28;19924;-66
2022/11/20 04:34:20;;;;;;;;;;;0.80;99.90;;;;;;5080485;28;20349;-66
2022/11/20 04:36:46;;;;;;;;;;;0.80;99.90;;;;;;5101482;28;20420;-66
2022/11/20 04:39:12;;;;;;;;;;;0.80;99.90;;;;;;5097945;28;19920;-67
2022/11/20 04:41:38;;;;;;;;;;;0.80;99.90;;;;;;5099279;28;19955;-67
2022/11/20 04:44:05;;;;;;;;;;;0.80;99.90;;;;;;5082713;28;19959;-67
2022/11/20 04:46:32;;;;;;;;;;;0.70;99.90;;;;;;5096536;28;19920;-66
2022/11/20 04:48:58;;;;;;;;;;;0.70;99.90;;;;;;5081763;28;20010;-66
2022/11/20 04:51:24;;;;;;;;;;;0.70;99.90;;;;;;5085024;28;21328;-66
2022/11/20 04:53:49;;;;;;;;;;;0.70;99.90;;;;;;5083047;28;19928;-67
2022/11/20 04:56:15;;;;;;;;;;;0.80;99.90;;;;;;5109300;27;19950;-67
2022/11/20 04:58:40;;;;;;;;;;;0.80;99.90;;;;;;5101515;28;19928;-67
2022/11/20 05:01:07;;;;;;;;;;;0.80;99.90;;;;;;5100484;28;20412;-66
2022/11/20 05:03:33;;;;;;;;;;;0.90;99.90;;;;;;5097560;28;19920;-66
2022/11/20 05:06:02;;;;;;;;;;;0.90;99.90;;;;;;5081950;28;20068;-67
2022/11/20 05:08:28;;;;;;;;;;;0.90;99.90;;;;;;5086790;28;19923;-66
2022/11/20 05:10:54;;;;;;;;;;;0.90;99.90;;;;;;5086736;28;20285;-67
2022/11/20 05:13:19;;;;;;;;;;;0.90;99.90;;;;;;5084625;28;19924;-66
2022/11/20 05:15:45;;;;;;;;;;;0.90;99.90;;;;;;5101990;28;19920;-67
2022/11/20 05:18:10;;;;;;;;;;;0.90;99.90;;;;;;5102120;28;19959;-67
2022/11/20 05:20:36;;;;;;;;;;;0.90;99.90;;;;;;5080685;28;19928;-67
2022/11/20 05:23:01;;;;;;;;;;;0.80;99.90;;;;;;5082679;28;19947;-67
2022/11/20 05:25:27;;;;;;;;;;;0.90;99.90;;;;;;5089396;28;19919;-67
2022/11/20 05:27:52;;;;;;;;;;;0.90;99.90;;;;;;5099892;28;19920;-67
2022/11/20 05:30:18;;;;;;;;;;;1.00;99.90;;;;;;5100814;28;20281;-67
2022/11/20 05:32:43;;;;;;;;;;;0.90;99.90;;;;;;5085417;28;19981;-66
2022/11/20 05:35:09;;;;;;;;;;;0.90;99.90;;;;;;5082683;28;19919;-67
2022/11/20 05:37:34;;;;;;;;;;;0.90;99.90;;;;;;5115492;27;19923;-67
2022/11/20 05:40:00;;;;;;;;;;;1.00;99.90;;;;;;5099956;28;19923;-67
2022/11/20 05:42:31;;;;;;;;;;;1.00;99.90;;;;;;5102013;28;20010;-67
2022/11/20 05:45:01;;;;;;;;;;;1.00;99.90;;;;;;5096516;28;19975;-67
2022/11/20 05:47:27;;;;;;;;;;;1.00;99.90;;;;;;5096887;28;19924;-66
2022/11/20 05:49:53;;;;;;;;;;;0.80;99.90;;;;;;5100345;28;20459;-67
2022/11/20 05:52:18;;;;;;;;;;;0.70;99.90;;;;;;5080563;28;19953;-67
2022/11/20 05:54:44;;;;;;;;;;;0.70;99.90;;;;;;5104000;28;19946;-67
2022/11/20 05:57:09;;;;;;;;;;;0.70;99.90;;;;;;5101243;28;19935;-66
2022/11/20 05:59:35;;;;;;;;;;;0.70;99.90;;;;;;5099393;28;19920;-67
2022/11/20 06:02:00;;;;;;;;;;;0.70;99.90;;;;;;5099524;28;19920;-67
2022/11/20 06:04:26;;;;;;;;;;;0.80;99.90;;;;;;5101883;28;20434;-66
2022/11/20 06:06:51;;;;;;;;;;;0.80;99.90;;;;;;5097421;28;19981;-66
2022/11/20 06:09:17;;;;;;;;;;;0.90;99.90;;;;;;5095107;28;19923;-67
2022/11/20 06:11:42;;;;;;;;;;;0.90;99.90;;;;;;5095048;28;21199;-67
2022/11/20 06:14:08;;;;;;;;;;;0.90;99.90;;;;;;5099514;28;19955;-66
2022/11/20 06:16:33;;;;;;;;;;;0.90;99.90;;;;;;5101651;28;19924;-67
2022/11/20 06:18:59;;;;;;;;;;;0.90;99.90;;;;;;5103941;28;19928;-67
2022/11/20 06:21:24;;;;;;;;;;;0.90;99.90;;;;;;5113342;28;20373;-67
2022/11/20 06:23:50;;;;;;;;;;;1.00;99.90;;;;;;5099728;28;19927;-67
2022/11/20 06:26:17;;;;;;;;;;;1.00;99.90;;;;;;5103555;27;20034;-67
2022/11/20 06:28:42;;;;;;;;;;;0.90;99.90;;;;;;5105046;27;19921;-67
2022/11/20 06:31:10;;;;;;;;;;;1.00;99.90;;;;;;5102124;28;19989;-67
2022/11/20 06:33:35;;;;;;;;;;;1.00;99.90;;;;;;5105903;28;20007;-66
2022/11/20 06:36:01;;;;;;;;;;;1.00;99.90;;;;;;5100445;28;20065;-67
2022/11/20 06:38:27;;;;;;;;;;;1.00;99.90;;;;;;5091640;28;19931;-67
2022/11/20 06:40:53;;;;;;;;;;;1.00;99.90;;;;;;5099975;28;20024;-67
2022/11/20 06:43:18;;;;;;;;;;;1.00;99.90;;;;;;5107922;28;19931;-67
2022/11/20 06:45:44;;;;;;;;;;;1.00;99.90;;;;;;5102807;28;20010;-67
2022/11/20 06:48:09;;;;;;;;;;;1.00;99.90;;;;;;5099578;28;19924;-67
2022/11/20 06:50:38;;;;;;;;;;;1.00;99.90;;;;;;5099006;28;19934;-67
2022/11/20 06:53:04;;;;;;;;;;;0.90;99.90;;;;;;5099867;28;19924;-67
2022/11/20 06:55:30;;;;;;;;;;;1.00;99.90;;;;;;5120710;27;19920;-67
2022/11/20 06:57:55;;;;;;;;;;;0.90;99.90;;;;;;5099800;28;19931;-67
2022/11/20 07:00:21;;;;;;;;;;;1.00;99.90;;;;;;5101704;28;19928;-67
2022/11/20 07:02:46;;;;;;;;;;;1.00;99.90;;;;;;5095531;28;20315;-67
2022/11/20 07:05:12;;;;;;;;;;;1.00;99.90;;;;;;5101089;28;19966;-67
2022/11/20 07:07:37;;;;;;;;;;;1.00;99.90;;;;;;5101219;28;19920;-67
2022/11/20 07:10:04;;;;;;;;;;;1.00;99.90;;;;;;5094487;28;20002;-67
2022/11/20 07:12:29;;;;;;;;;;;1.00;99.90;;;;;;5084265;28;20396;-67
2022/11/20 07:14:54;;;;;;;;;;;1.10;99.90;;;;;;5105101;28;20010;-67
2022/11/20 07:17:20;;;;;;;;;;;1.10;99.90;;;;;;5101202;28;19924;-67
2022/11/20 07:19:45;;;;;;;;;;;1.10;99.90;;;;;;5099585;28;19928;-67
2022/11/20 07:22:11;;;;;;;;;;;1.10;99.90;;;;;;5102955;28;19919;-67
2022/11/20 07:24:36;;;;;;;;;;;1.10;99.90;;;;;;5103316;28;19950;-67
2022/11/20 07:27:02;;;;;;;;;;;1.10;99.90;;;;;;5102806;28;19927;-67
2022/11/20 07:29:27;;;;;;;;;;;1.10;99.90;;;;;;5103736;28;19985;-67
2022/11/20 07:31:55;;;;;;;;;;;1.10;99.90;;;;;;5101597;28;19924;-67
2022/11/20 07:34:20;;;;;;;;;;;1.10;99.90;;;;;;5098059;28;19924;-67
2022/11/20 07:36:46;;;;;;;;;;;1.20;99.90;;;;;;5098242;28;20579;-67
2022/11/20 07:39:11;;;;;;;;;;;1.20;99.90;;;;;;5110708;28;19969;-67
2022/11/20 07:41:37;;;;;;;;;;;1.20;99.90;;;;;;5108339;28;19963;-66
2022/11/20 07:44:02;;;;;;;;;;;1.20;99.90;;;;;;5097605;28;19970;-66
2022/11/20 07:46:28;;;;;;;;;;;1.20;99.90;;;;;;5105508;28;20011;-69
2022/11/20 07:48:53;;;;;;;;;;;1.20;99.90;;;;;;5107973;27;20361;-69
2022/11/20 07:51:19;;;;;;;;;;;1.20;99.90;;;;;;5105559;28;19924;-69
2022/11/20 07:53:44;;;;;;;;;;;1.20;99.90;;;;;;5102265;27;19924;-69
2022/11/20 07:56:10;;;;;;;;;;;1.20;99.90;;;;;;5095159;28;19920;-70
2022/11/20 07:58:35;;;;;;;;;;;1.30;99.90;;;;;;5102113;28;20318;-69
2022/11/20 08:01:04;;;;;;;;;;;1.30;99.90;;;;;;5102025;28;19997;-69
2022/11/20 08:03:30;;;;;;;;;;;1.30;99.90;;;;;;5102833;28;19923;-70
2022/11/20 08:05:58;;;;;;;;;;;1.30;99.90;;;;;;5084496;28;19926;-70
2022/11/20 08:08:23;;;;;;;;;;;1.30;99.90;;;;;;5104747;28;19931;-69
2022/11/20 08:10:49;;;;;;;;;;;1.40;99.90;;;;;;5102097;28;19924;-69
2022/11/20 08:15:58;;;;;;;;;;;1.40;99.90;;;;;;5109176;28;19927;-70
2022/11/20 08:18:24;;;;;;;;;;;1.50;99.90;;;;;;5106483;28;20357;-70
2022/11/20 08:20:49;;;;;;;;;;;1.50;99.90;;;;;;5111552;28;19932;-70
2022/11/20 08:23:14;;;;;;;;;;;1.50;99.90;;;;;;5085262;28;19927;-70
2022/11/20 08:25:40;;;;;;;;;;;1.60;99.90;;;;;;5110885;27;19928;-70
2022/11/20 08:28:07;;;;;;;;;;;1.60;99.90;;;;;;5101187;28;19975;-70
2022/11/20 08:30:33;;;;;;;;;;;1.60;99.90;;;;;;5100090;27;20003;-70
2022/11/20 08:33:06;;;;;;;;;;;1.60;99.90;;;;;;5095859;28;20014;-69
2022/11/20 08:35:38;;;;;;;;;;;1.70;99.90;;;;;;5113105;28;20010;-69
2022/11/20 08:38:04;;;;;;;;;;;1.70;99.90;;;;;;5080934;22;20716;-70
2022/11/20 08:40:30;;;;;;;;;;;1.70;99.90;;;;;;5030656;28;19957;-69
2022/11/20 08:42:55;;;;;;;;;;;1.70;99.90;;;;;;5024617;28;20364;-69
2022/11/20 08:45:20;;;;;;;;;;;1.70;99.90;;;;;;5029747;28;19921;-69
2022/11/20 08:47:46;;;;;;;;;;;1.80;99.90;;;;;;5030956;28;19956;-70
2022/11/20 08:50:12;;;;;;;;;;;1.80;99.90;;;;;;5030735;28;19967;-70
2022/11/20 08:52:38;;;;;;;;;;;1.80;99.90;;;;;;5030732;28;20440;-69
2022/11/20 08:55:04;;;;;;;;;;;1.80;99.90;;;;;;5029806;28;19929;-69
2022/11/20 08:57:36;;;;;;;;;;;1.80;99.90;;;;;;5029762;28;19959;-70
2022/11/20 09:00:03;;;;;;;;;;;1.90;99.90;;;;;;5030574;28;19938;-70
2022/11/20 09:02:29;;;;;;;;;;;1.90;99.90;;;;;;5030549;28;19921;-70
2022/11/20 09:04:54;;;;;;;;;;;1.90;99.90;;;;;;5029949;28;19927;-70
2022/11/20 09:07:20;;;;;;;;;;;1.90;99.90;;;;;;5043249;28;19921;-70
2022/11/20 09:09:45;;;;;;;;;;;2.00;99.90;;;;;;5030902;28;20722;-70
2022/11/20 09:12:11;;;;;;;;;;;2.00;99.90;;;;;;5031173;28;19925;-70
2022/11/20 09:14:36;;;;;;;;;;;2.10;99.90;;;;;;5020455;28;19983;-70
2022/11/20 09:17:02;;;;;;;;;;;2.00;99.90;;;;;;5030750;28;19936;-71
2022/11/20 09:19:27;;;;;;;;;;;2.00;99.90;;;;;;5035634;28;20010;-70
2022/11/20 09:21:53;;;;;;;;;;;2.10;99.90;;;;;;5025035;28;19921;-70
2022/11/20 09:24:20;;;;;;;;;;;2.10;99.90;;;;;;5042211;28;19967;-70
2022/11/20 09:26:45;;;;;;;;;;;2.10;99.90;;;;;;5024318;28;19925;-70
2022/11/20 09:29:11;;;;;;;;;;;2.10;99.90;;;;;;5027046;28;19945;-70
2022/11/20 09:31:36;;;;;;;;;;;2.20;99.90;;;;;;5028852;28;20062;-70
2022/11/20 09:34:02;;;;;;;;;;;2.30;99.90;;;;;;5028989;28;19921;-70
2022/11/20 09:36:27;;;;;;;;;;;2.30;99.90;;;;;;5023863;28;19935;-70
2022/11/20 09:38:53;;;;;;;;;;;2.30;99.90;;;;;;5028301;28;19921;-70
2022/11/20 09:41:19;;;;;;;;;;;2.30;99.90;;;;;;5030248;28;20387;-69
2022/11/20 09:44:03;;;;;;;;;;;2.40;99.90;;;;;;5031741;28;19925;-70
2022/11/20 09:46:32;;;;;;;;;;;2.50;99.90;;;;;;5027305;28;19933;-70
2022/11/20 09:49:03;;;;;;;;;;;2.50;99.90;;;;;;5011930;28;19932;-70
2022/11/20 09:51:47;;;;;;;;;;;2.60;99.90;;;;;;5039219;28;19936;-70
2022/11/20 09:54:17;;;;;;;;;;;2.60;99.90;;;;;;5023990;28;20303;-70
2022/11/20 09:56:51;;;;;;;;;;;2.70;99.90;;;;;;5023268;28;19975;-72
2022/11/20 09:59:26;;;;;;;;;;;2.70;99.90;;;;;;5031709;28;19925;-70
2022/11/20 10:01:52;;;;;;;;;;;2.70;99.90;;;;;;5043194;28;20016;-70
2022/11/20 10:04:19;;;;;;;;;;;2.70;99.90;;;;;;5029628;28;20032;-70
2022/11/20 10:06:55;;;;;;;;;;;2.70;99.90;;;;;;5028898;28;19956;-71
2022/11/20 10:09:37;;;;;;;;;;;2.70;99.90;;;;;;5029949;28;19952;-71
2022/11/20 10:12:33;;;;;;;;;;;2.80;99.90;;;;;;5026527;28;19971;-70
2022/11/20 10:15:10;;;;;;;;;;;2.70;99.90;;;;;;5000761;28;19930;-70
2022/11/20 10:17:52;;;;;;;;;;;2.70;99.90;;;;;;5040558;28;20083;-71
2022/11/20 10:20:27;;;;;;;;;;;2.80;99.90;;;;;;5015230;28;19929;-70
2022/11/20 10:23:11;;;;;;;;;;;2.90;99.90;;;;;;5024401;28;19922;-71
2022/11/20 10:25:43;;;;;;;;;;;2.90;99.90;;;;;;5025350;28;19921;-70
2022/11/20 10:28:24;;;;;;;;;;;3.00;99.90;;;;;;5028854;28;19929;-71
2022/11/20 10:30:55;;;;;;;;;;;3.00;99.90;;;;;;5029076;28;20366;-72
2022/11/20 10:33:25;;;;;;;;;;;3.10;99.90;;;;;;5029069;28;19929;-70
2022/11/20 10:35:59;;;;;;;;;;;3.10;99.90;;;;;;5029004;28;19926;-71
2022/11/20 10:38:31;;;;;;;;;;;3.20;99.90;;;;;;5028075;28;19929;-69
2022/11/20 10:41:24;;;;;;;;;;;3.30;99.90;;;;;;5028486;28;19925;-70
2022/11/20 10:43:44;;;;;;;;;;;3.40;99.90;;;;;;5028859;28;19956;-70
2022/11/20 10:46:18;;;;;;;;;;;3.50;99.90;;;;;;5029717;28;20373;-70
2022/11/20 10:48:44;;;;;;;;;;;3.50;99.90;;;;;;5047222;28;20343;-70
2022/11/20 10:51:28;;;;;;;;;;;3.60;99.90;;;;;;5020938;28;20302;-69
2022/11/20 10:54:19;;;;;;;;;;;3.50;99.90;;;;;;5024875;28;19951;-70
2022/11/20 10:56:50;;;;;;;;;;;3.60;99.90;;;;;;5024966;28;19929;-70
2022/11/20 10:59:18;;;;;;;;;;;3.70;99.90;;;;;;5023109;28;20279;-70
2022/11/20 11:01:44;;;;;;;;;;;3.70;99.90;;;;;;5023042;28;19960;-70
2022/11/20 11:04:29;;;;;;;;;;;3.70;99.90;;;;;;5024217;28;19986;-70
2022/11/20 11:06:58;;;;;;;;;;;3.70;99.90;;;;;;5045961;28;19926;-70
2022/11/20 11:09:32;;;;;;;;;;;3.60;99.90;;;;;;5029124;28;20594;-70
2022/11/20 11:11:57;;;;;;;;;;;3.60;99.90;;;;;;5015643;28;19964;-70
2022/11/20 11:14:24;;;;;;;;;;;3.70;99.90;;;;;;5024867;28;19963;-70
2022/11/20 11:16:51;;;;;;;;;;;3.70;99.90;;;;;;5031123;28;19964;-70
2022/11/20 11:19:16;;;;;;;;;;;3.70;99.90;;;;;;5029973;28;19951;-70
2022/11/20 11:21:49;;;;;;;;;;;3.60;99.90;;;;;;5032317;28;19929;-71
2022/11/20 11:24:34;;;;;;;;;;;3.60;99.90;;;;;;5029959;28;19991;-71
2022/11/20 11:27:06;;;;;;;;;;;3.50;99.90;;;;;;5045227;28;19925;-71
2022/11/20 11:29:32;;;;;;;;;;;3.50;99.90;;;;;;5048566;28;19966;-72
2022/11/20 11:32:08;;;;;;;;;;;3.50;99.90;;;;;;5027487;28;19929;-71
2022/11/20 11:34:34;;;;;;;;;;;3.50;99.90;;;;;;5031791;28;19965;-71
2022/11/20 11:37:00;;;;;;;;;;;3.60;99.90;;;;;;5030489;28;19929;-71
2022/11/20 11:39:27;;;;;;;;;;;3.60;99.90;;;;;;5031521;28;19925;-71
2022/11/20 11:41:52;;;;;;;;;;;3.60;99.90;;;;;;5014458;28;19921;-72
2022/11/20 11:47:19;;;;;;;;;;;3.70;99.90;;;;;;5029937;28;19925;-71
2022/11/20 11:49:45;;;;;;;;;;;3.60;99.90;;;;;;5030046;28;19999;-71
2022/11/20 11:52:19;;;;;;;;;;;3.60;99.90;;;;;;5024102;28;20252;-71
2022/11/20 11:55:03;;;;;;;;;;;3.70;99.90;;;;;;5026321;28;19929;-70
2022/11/20 11:57:49;;;;;;;;;;;3.70;99.90;;;;;;5027387;28;19983;-71
2022/11/20 12:00:19;;;;;;;;;;;3.60;99.90;;;;;;5017015;28;19929;-71
2022/11/20 12:02:45;;;;;;;;;;;3.60;99.90;;;;;;5025800;28;19932;-72
2022/11/20 12:05:23;;;;;;;;;;;3.50;99.90;;;;;;5028783;28;19945;-71
2022/11/20 12:07:51;;;;;;;;;;;3.60;99.90;;;;;;5026036;28;19943;-71
2022/11/20 12:10:17;;;;;;;;;;;3.60;99.90;;;;;;5029590;28;20387;-71
2022/11/20 12:12:48;;;;;;;;;;;3.60;99.90;;;;;;5029542;28;20013;-70
2022/11/20 12:15:21;;;;;;;;;;;3.60;99.90;;;;;;5030927;28;20401;-71
2022/11/20 12:17:47;;;;;;;;;;;3.70;99.90;;;;;;5040429;28;19932;-71
2022/11/20 12:20:13;;;;;;;;;;;3.80;99.90;;;;;;5030257;28;20271;-71
2022/11/20 12:22:57;;;;;;;;;;;4.00;99.90;;;;;;5043789;28;19921;-71
2022/11/20 12:25:34;;;;;;;;;;;4.00;99.90;;;;;;5028529;28;20370;-71
2022/11/20 12:28:04;;;;;;;;;;;4.20;99.90;;;;;;5024053;28;19928;-72
2022/11/20 12:30:31;;;;;;;;;;;4.20;99.90;;;;;;5029595;28;19928;-71
2022/11/20 12:33:08;;;;;;;;;;;4.40;99.90;;;;;;5033636;28;19925;-71
2022/11/20 12:35:52;;;;;;;;;;;4.50;99.90;;;;;;5026156;28;20419;-70
2022/11/20 12:38:37;;;;;;;;;;;4.50;99.90;;;;;;5030155;28;19964;-71
2022/11/20 12:41:05;;;;;;;;;;;4.80;99.90;;;;;;5028469;28;19975;-72
2022/11/20 12:46:45;;;;;;;;;;;4.90;99.90;;;;;;5053814;28;19921;-71
2022/11/20 12:49:49;;;;;;;;;;;4.80;99.90;;;;;;5047486;28;19925;-71
2022/11/20 12:52:19;;;;;;;;;;;4.70;99.90;;;;;;4987097;28;20021;-71
2022/11/20 12:54:59;;;;;;;;;;;4.60;99.90;;;;;;4972985;28;20268;-70
2022/11/20 12:57:29;;;;;;;;;;;4.50;99.90;;;;;;5012876;28;19933;-71
2022/11/20 12:59:58;;;;;;;;;;;4.40;99.90;;;;;;5027030;28;20291;-71
2022/11/20 13:02:23;;;;;;;;;;;4.40;99.90;;;;;;5034008;28;19928;-71
2022/11/20 13:04:55;;;;;;;;;;;4.30;99.90;;;;;;5023330;28;19921;-71
2022/11/20 13:07:21;;;;;;;;;;;4.30;99.90;;;;;;5025358;28;20306;-72
2022/11/20 13:09:48;;;;;;;;;;;4.30;99.90;;;;;;5039755;28;19924;-71
2022/11/20 13:12:24;;;;;;;;;;;4.40;99.90;;;;;;5026341;28;19921;-72
2022/11/20 13:14:56;;;;;;;;;;;4.30;99.90;;;;;;5025308;28;19932;-71
2022/11/20 13:17:28;;;;;;;;;;;4.40;99.90;;;;;;5030555;28;20417;-71
2022/11/20 13:19:55;;;;;;;;;;;4.40;99.90;;;;;;5029477;28;19953;-71
2022/11/20 13:22:25;;;;;;;;;;;4.50;99.90;;;;;;5022528;28;19929;-71
2022/11/20 13:24:52;;;;;;;;;;;4.40;99.90;;;;;;5022457;28;20586;-70
2022/11/20 13:27:19;;;;;;;;;;;4.50;99.90;;;;;;5020322;28;19928;-71
2022/11/20 13:29:59;;;;;;;;;;;4.50;99.90;;;;;;5030659;28;19932;-71
2022/11/20 13:32:24;;;;;;;;;;;4.50;99.90;;;;;;5021708;28;20007;-70
2022/11/20 13:34:57;;;;;;;;;;;4.40;99.90;;;;;;5019529;28;20573;-71
2022/11/20 13:37:30;;;;;;;;;;;4.50;99.90;;;;;;5036867;28;19929;-70
2022/11/20 13:40:08;;;;;;;;;;;4.40;99.90;;;;;;5020390;28;20328;-70
2022/11/20 13:42:43;;;;;;;;;;;4.40;99.90;;;;;;5020110;28;20385;-70
2022/11/20 13:45:11;;;;;;;;;;;4.30;99.90;;;;;;5030193;28;20353;-70
2022/11/20 13:47:36;;;;;;;;;;;4.30;99.90;;;;;;5025193;28;20035;-71
2022/11/20 13:50:03;;;;;;;;;;;4.30;99.90;;;;;;5025447;28;20055;-70
2022/11/20 13:52:41;;;;;;;;;;;4.20;99.90;;;;;;5016773;28;20876;-70
2022/11/20 13:55:18;;;;;;;;;;;4.20;99.90;;;;;;5018766;28;19930;-70
2022/11/20 13:57:56;;;;;;;;;;;4.30;99.90;;;;;;5020446;28;19936;-71
2022/11/20 14:00:22;;;;;;;;;;;4.20;99.90;;;;;;5010219;28;19921;-71
2022/11/20 14:03:06;;;;;;;;;;;4.20;99.90;;;;;;5010772;28;20604;-70
2022/11/20 14:05:49;;;;;;;;;;;4.20;99.90;;;;;;5031341;28;20339;-70
2022/11/20 14:08:22;;;;;;;;;;;4.20;99.90;;;;;;5016326;28;20406;-71
2022/11/20 14:10:48;;;;;;;;;;;4.20;99.90;;;;;;5014628;28;19932;-71
2022/11/20 14:13:20;;;;;;;;;;;4.20;99.90;;;;;;5024982;28;19933;-70
2022/11/20 14:15:45;;;;;;;;;;;4.20;99.90;;;;;;5005946;28;19925;-71
2022/11/20 14:18:15;;;;;;;;;;;4.20;99.90;;;;;;5025099;28;19925;-70
2022/11/20 14:20:41;;;;;;;;;;;4.10;99.90;;;;;;5019697;28;20026;-71
2022/11/20 14:23:09;;;;;;;;;;;4.00;99.90;;;;;;5020330;28;20004;-71
2022/11/20 14:25:34;;;;;;;;;;;3.90;99.90;;;;;;5020308;28;20499;-71
2022/11/20 14:28:01;;;;;;;;;;;3.90;99.90;;;;;;5020706;28;19932;-70
2022/11/20 14:30:28;;;;;;;;;;;3.80;99.90;;;;;;5020013;28;19925;-71
2022/11/20 14:32:55;;;;;;;;;;;3.80;99.90;;;;;;5032549;28;19975;-71
2022/11/20 14:35:23;;;;;;;;;;;3.70;99.90;;;;;;5022517;28;19928;-72
2022/11/20 14:37:49;;;;;;;;;;;3.70;99.90;;;;;;5039129;28;19956;-72
2022/11/20 14:40:37;;;;;;;;;;;3.50;99.90;;;;;;5030384;28;20363;-71
2022/11/20 14:43:16;;;;;;;;;;;3.50;99.90;;;;;;5049720;28;19928;-72
2022/11/20 14:45:42;;;;;;;;;;;3.50;99.90;;;;;;5030754;28;19968;-72
2022/11/20 14:48:09;;;;;;;;;;;3.40;99.90;;;;;;5036162;28;19960;-72
2022/11/20 14:50:35;;;;;;;;;;;3.30;99.90;;;;;;5032089;28;20434;-71